Time;durP1;ratioP1;P1;durP2;ratioP2;P2;SDS_P1;SDS_P2;PMS_P1;PMS_P2;Temp;Humidity;BMP_temperature;BMP_pressure;BME280_temperature;BME280_humidity;BME280_pressure;Samples;Min_cycle;Max_cycle;Signal;HPM_P1;HPM_P2
2022/12/09 00:00:04;;;;;;;13.57;6.37;;;;;;;;;;5008871;28;20593;-57
2022/12/09 00:02:30;;;;;;;7.70;6.53;;;;;;;;;;5005335;28;20277;-58
2022/12/09 00:04:56;;;;;;;8.23;6.10;;;;;;;;;;5024796;28;20628;-57
2022/12/09 00:07:22;;;;;;;7.63;5.80;;;;;;;;;;5025790;28;20178;-58
2022/12/09 00:09:48;;;;;;;8.70;6.57;;;;;;;;;;5024805;28;20179;-58
2022/12/09 00:12:14;;;;;;;8.30;6.27;;;;;;;;;;5024024;28;20237;-58
2022/12/09 00:14:40;;;;;;;9.83;6.70;;;;;;;;;;5027148;28;20166;-56
2022/12/09 00:17:06;;;;;;;9.17;6.83;;;;;;;;;;5023404;28;20493;-58
2022/12/09 00:19:33;;;;;;;7.73;6.33;;;;;;;;;;5022293;28;20320;-59
2022/12/09 00:21:59;;;;;;;8.77;7.03;;;;;;;;;;5002844;28;20178;-58
2022/12/09 00:24:25;;;;;;;9.50;6.50;;;;;;;;;;5002888;28;21053;-59
2022/12/09 00:26:51;;;;;;;8.43;6.30;;;;;;;;;;5014864;28;20256;-56
2022/12/09 00:29:18;;;;;;;8.13;6.07;;;;;;;;;;5018904;28;20340;-59
2022/12/09 00:31:44;;;;;;;7.23;6.13;;;;;;;;;;5032286;28;20221;-58
2022/12/09 00:34:11;;;;;;;10.00;7.57;;;;;;;;;;5041756;28;20216;-57
2022/12/09 00:36:37;;;;;;;8.37;6.90;;;;;;;;;;5025152;28;20611;-57
2022/12/09 00:39:03;;;;;;;8.30;7.00;;;;;;;;;;5022222;28;20672;-59
2022/12/09 00:41:29;;;;;;;8.87;6.57;;;;;;;;;;5026835;28;20568;-58
2022/12/09 00:43:56;;;;;;;7.43;6.13;;;;;;;;;;5024821;28;20583;-58
2022/12/09 00:46:22;;;;;;;8.57;6.37;;;;;;;;;;5036783;28;20255;-58
2022/12/09 00:48:48;;;;;;;9.90;7.60;;;;;;;;;;5043029;28;20201;-58
2022/12/09 00:51:16;;;;;;;7.50;6.70;;;;;;;;;;5039312;28;20173;-57
2022/12/09 00:53:42;;;;;;;7.60;6.47;;;;;;;;;;5038167;28;20189;-57
2022/12/09 00:56:08;;;;;;;10.07;7.07;;;;;;;;;;5022472;28;20615;-57
2022/12/09 00:58:34;;;;;;;8.47;6.57;;;;;;;;;;5039148;28;20189;-58
2022/12/09 01:01:00;;;;;;;9.13;6.93;;;;;;;;;;5039688;28;20177;-58
2022/12/09 01:03:26;;;;;;;7.77;6.60;;;;;;;;;;5044129;28;20610;-56
2022/12/09 01:05:52;;;;;;;8.93;6.77;;;;;;;;;;5022592;28;20290;-56
2022/12/09 01:08:18;;;;;;;13.33;7.23;;;;;;;;;;5040997;28;20274;-56
2022/12/09 01:10:45;;;;;;;12.23;7.17;;;;;;;;;;5015768;28;21707;-57
2022/12/09 01:13:14;;;;;;;12.97;7.23;;;;;;;;;;5028663;28;20180;-57
2022/12/09 01:15:41;;;;;;;8.97;6.80;;;;;;;;;;5024472;28;20711;-57
2022/12/09 01:18:07;;;;;;;10.60;7.73;;;;;;;;;;5020690;28;20199;-57
2022/12/09 01:20:33;;;;;;;10.93;7.23;;;;;;;;;;5031058;28;20806;-57
2022/12/09 01:23:00;;;;;;;10.60;8.20;;;;;;;;;;5040956;28;20173;-56
2022/12/09 01:25:26;;;;;;;11.40;7.73;;;;;;;;;;5020206;28;20183;-57
2022/12/09 01:27:52;;;;;;;11.60;8.10;;;;;;;;;;5023025;28;20204;-56
2022/12/09 01:30:18;;;;;;;10.87;8.20;;;;;;;;;;5015998;28;20200;-57
2022/12/09 01:32:45;;;;;;;11.17;8.40;;;;;;;;;;5022385;28;20188;-58
2022/12/09 01:35:11;;;;;;;9.50;6.83;;;;;;;;;;5031645;28;20354;-56
2022/12/09 01:37:37;;;;;;;13.07;8.83;;;;;;;;;;5032349;28;20680;-58
2022/12/09 01:40:04;;;;;;;13.57;8.63;;;;;;;;;;5017877;28;20189;-57
2022/12/09 01:42:30;;;;;;;9.13;7.10;;;;;;;;;;5035317;28;20197;-57
2022/12/09 01:45:31;;;;;;;10.33;7.50;;;;;;;;;;5039163;28;20176;-58
2022/12/09 01:48:00;;;;;;;11.17;7.53;;;;;;;;;;5003165;28;20589;-58
2022/12/09 01:50:26;;;;;;;10.07;7.77;;;;;;;;;;5023948;28;20267;-57
2022/12/09 01:52:53;;;;;;;11.43;7.50;;;;;;;;;;5048795;28;20566;-56
2022/12/09 01:55:19;;;;;;;11.03;8.73;;;;;;;;;;5029030;28;20169;-56
2022/12/09 01:57:45;;;;;;;10.60;8.43;;;;;;;;;;5046148;28;20181;-57
2022/12/09 02:00:12;;;;;;;12.07;8.17;;;;;;;;;;5027258;28;20177;-57
2022/12/09 02:02:39;;;;;;;12.47;8.60;;;;;;;;;;5039830;28;20173;-56
2022/12/09 02:05:05;;;;;;;10.60;7.50;;;;;;;;;;5029285;28;20254;-59
2022/12/09 02:07:31;;;;;;;12.80;8.43;;;;;;;;;;5030760;28;20627;-59
2022/12/09 02:09:57;;;;;;;13.27;8.67;;;;;;;;;;5049750;28;20303;-57
2022/12/09 02:12:32;;;;;;;11.20;7.93;;;;;;;;;;5046939;28;20272;-56
2022/12/09 02:15:02;;;;;;;11.97;8.30;;;;;;;;;;5048311;28;20179;-58
2022/12/09 02:17:37;;;;;;;11.70;8.67;;;;;;;;;;5047527;28;20204;-57
2022/12/09 02:20:09;;;;;;;11.00;7.80;;;;;;;;;;5053399;28;20187;-56
2022/12/09 02:22:46;;;;;;;11.03;8.57;;;;;;;;;;5058256;28;20181;-59
2022/12/09 02:25:22;;;;;;;10.60;8.20;;;;;;;;;;5050323;28;20631;-56
2022/12/09 02:27:52;;;;;;;11.33;8.97;;;;;;;;;;5035735;28;20259;-56
2022/12/09 02:30:22;;;;;;;12.27;9.77;;;;;;;;;;5048210;28;20201;-59
2022/12/09 02:32:54;;;;;;;10.73;8.57;;;;;;;;;;5045191;28;20173;-56
2022/12/09 02:35:31;;;;;;;11.03;8.17;;;;;;;;;;5045806;28;20551;-58
2022/12/09 02:38:06;;;;;;;11.10;8.20;;;;;;;;;;5057474;28;20188;-57
2022/12/09 02:40:40;;;;;;;11.23;7.60;;;;;;;;;;5049767;28;20530;-57
2022/12/09 02:43:07;;;;;;;14.83;8.53;;;;;;;;;;5045247;28;20647;-58
2022/12/09 02:45:35;;;;;;;9.77;7.73;;;;;;;;;;5048298;27;20248;-57
2022/12/09 02:48:01;;;;;;;10.47;7.77;;;;;;;;;;5046588;28;20197;-56
2022/12/09 02:50:31;;;;;;;12.50;7.87;;;;;;;;;;5046714;28;20184;-57
2022/12/09 02:52:59;;;;;;;10.97;7.20;;;;;;;;;;5048664;28;20180;-57
2022/12/09 02:55:26;;;;;;;8.60;7.47;;;;;;;;;;5049277;28;20183;-59
2022/12/09 02:57:55;;;;;;;11.20;7.63;;;;;;;;;;5042266;28;20627;-57
2022/12/09 03:00:21;;;;;;;12.23;7.93;;;;;;;;;;5044940;28;20559;-57
2022/12/09 03:02:49;;;;;;;11.67;7.87;;;;;;;;;;5043504;28;20586;-58
2022/12/09 03:05:30;;;;;;;9.77;7.57;;;;;;;;;;5048977;28;20181;-57
2022/12/09 03:08:15;;;;;;;9.37;6.93;;;;;;;;;;5044873;28;20610;-57
2022/12/09 03:10:56;;;;;;;9.03;7.63;;;;;;;;;;5048423;28;20517;-57
2022/12/09 03:13:29;;;;;;;10.93;7.43;;;;;;;;;;5044485;28;20227;-56
2022/12/09 03:15:59;;;;;;;10.00;7.17;;;;;;;;;;5047345;28;20200;-56
2022/12/09 03:18:27;;;;;;;11.47;8.17;;;;;;;;;;5043589;28;20173;-57
2022/12/09 03:20:53;;;;;;;10.57;7.83;;;;;;;;;;5044078;28;20239;-58
2022/12/09 03:23:21;;;;;;;8.73;7.50;;;;;;;;;;5046761;28;20513;-56
2022/12/09 03:25:50;;;;;;;10.20;7.10;;;;;;;;;;5047797;28;20647;-56
2022/12/09 03:28:21;;;;;;;9.17;7.07;;;;;;;;;;5026960;28;20239;-57
2022/12/09 03:30:48;;;;;;;9.97;6.97;;;;;;;;;;5034364;28;20192;-57
2022/12/09 03:33:15;;;;;;;8.47;6.93;;;;;;;;;;5047506;28;20640;-55
2022/12/09 03:35:43;;;;;;;10.33;7.07;;;;;;;;;;5029043;28;20188;-57
2022/12/09 03:38:11;;;;;;;8.17;6.57;;;;;;;;;;5049879;28;20574;-57
2022/12/09 03:40:38;;;;;;;8.90;7.17;;;;;;;;;;5037664;28;20615;-57
2022/12/09 03:43:12;;;;;;;9.93;7.70;;;;;;;;;;5045273;28;20196;-57
2022/12/09 03:45:39;;;;;;;9.27;7.50;;;;;;;;;;5047221;28;20228;-60
2022/12/09 03:48:05;;;;;;;8.77;6.53;;;;;;;;;;5045839;28;20205;-57
2022/12/09 03:50:34;;;;;;;8.33;6.83;;;;;;;;;;5048367;28;20247;-57
2022/12/09 03:53:04;;;;;;;9.13;6.87;;;;;;;;;;5044222;28;20234;-57
2022/12/09 03:55:41;;;;;;;8.50;6.07;;;;;;;;;;5054807;28;20173;-56
2022/12/09 03:58:08;;;;;;;8.97;7.00;;;;;;;;;;5041472;28;20726;-56
2022/12/09 04:00:36;;;;;;;8.50;7.00;;;;;;;;;;5043616;28;20704;-56
2022/12/09 04:03:02;;;;;;;9.00;6.60;;;;;;;;;;5050766;28;20181;-57
2022/12/09 04:05:28;;;;;;;8.17;6.43;;;;;;;;;;5019621;28;20270;-57
2022/12/09 04:07:54;;;;;;;7.87;6.17;;;;;;;;;;5043419;28;20666;-57
2022/12/09 04:10:20;;;;;;;13.80;6.23;;;;;;;;;;5046093;28;20173;-58
2022/12/09 04:12:46;;;;;;;9.53;7.13;;;;;;;;;;5043485;28;20177;-57
2022/12/09 04:15:12;;;;;;;8.93;6.20;;;;;;;;;;5046820;28;20188;-57
2022/12/09 04:17:38;;;;;;;7.97;6.23;;;;;;;;;;5046917;28;20177;-57
2022/12/09 04:20:05;;;;;;;10.93;7.17;;;;;;;;;;5045435;28;20508;-57
2022/12/09 04:22:31;;;;;;;10.33;6.40;;;;;;;;;;5045346;28;20268;-58
2022/12/09 04:24:57;;;;;;;8.73;6.10;;;;;;;;;;5044799;28;20208;-56
2022/12/09 04:27:23;;;;;;;9.93;6.03;;;;;;;;;;5043550;28;20182;-56
2022/12/09 04:29:49;;;;;;;8.93;6.20;;;;;;;;;;5033516;28;20528;-58
2022/12/09 04:32:15;;;;;;;7.53;6.03;;;;;;;;;;5045843;28;20211;-56
2022/12/09 04:34:41;;;;;;;6.60;5.23;;;;;;;;;;5061120;28;20568;-57
2022/12/09 04:37:07;;;;;;;7.53;5.83;;;;;;;;;;5027787;28;20227;-58
2022/12/09 04:39:33;;;;;;;7.60;5.83;;;;;;;;;;5046724;28;20176;-56
2022/12/09 04:41:59;;;;;;;7.10;6.33;;;;;;;;;;5027339;28;20216;-56
2022/12/09 04:44:25;;;;;;;7.20;6.13;;;;;;;;;;5044908;28;20181;-57
2022/12/09 04:46:52;;;;;;;9.30;6.33;;;;;;;;;;5045833;28;20595;-58
2022/12/09 04:49:18;;;;;;;8.57;6.00;;;;;;;;;;5037942;28;20211;-56
2022/12/09 04:51:51;;;;;;;8.20;6.10;;;;;;;;;;5047136;28;20189;-58
2022/12/09 04:54:17;;;;;;;9.17;5.63;;;;;;;;;;5054786;28;20181;-58
2022/12/09 04:56:43;;;;;;;8.03;5.90;;;;;;;;;;5043357;28;20374;-56
2022/12/09 04:59:09;;;;;;;14.03;6.20;;;;;;;;;;5045357;28;20207;-57
2022/12/09 05:01:35;;;;;;;7.50;5.63;;;;;;;;;;5048855;28;20439;-56
2022/12/09 05:04:01;;;;;;;6.67;5.70;;;;;;;;;;5044290;28;20435;-57
2022/12/09 05:06:27;;;;;;;9.10;6.17;;;;;;;;;;5046009;28;20185;-57
2022/12/09 05:08:54;;;;;;;6.93;5.93;;;;;;;;;;5011975;28;20250;-56
2022/12/09 05:11:22;;;;;;;7.77;5.93;;;;;;;;;;5031983;28;20337;-58
2022/12/09 05:13:48;;;;;;;8.90;5.93;;;;;;;;;;5024205;28;20181;-57
2022/12/09 05:16:15;;;;;;;8.20;5.87;;;;;;;;;;5045238;28;20164;-56
2022/12/09 05:18:41;;;;;;;9.27;5.77;;;;;;;;;;5054876;28;21049;-57
2022/12/09 05:21:09;;;;;;;7.27;5.53;;;;;;;;;;5023687;28;20177;-56
2022/12/09 05:23:35;;;;;;;8.27;5.57;;;;;;;;;;5060200;28;20211;-57
2022/12/09 05:26:05;;;;;;;8.33;6.50;;;;;;;;;;5055489;28;20177;-57
2022/12/09 05:28:31;;;;;;;10.37;6.53;;;;;;;;;;5021910;28;20201;-58
2022/12/09 05:31:01;;;;;;;7.53;5.57;;;;;;;;;;5045095;28;20207;-57
2022/12/09 05:33:27;;;;;;;9.07;6.07;;;;;;;;;;5040065;28;20623;-56
2022/12/09 05:36:00;;;;;;;6.47;4.57;;;;;;;;;;5042376;28;20600;-57
2022/12/09 05:38:26;;;;;;;8.00;6.10;;;;;;;;;;5044172;28;20164;-57
2022/12/09 05:40:52;;;;;;;6.97;5.40;;;;;;;;;;5025514;28;20177;-56
2022/12/09 05:43:18;;;;;;;8.33;5.63;;;;;;;;;;5028257;28;20269;-56
2022/12/09 05:45:59;;;;;;;6.43;5.20;;;;;;;;;;5046062;28;20329;-56
2022/12/09 05:48:25;;;;;;;7.43;5.77;;;;;;;;;;5046103;28;20201;-58
2022/12/09 05:50:57;;;;;;;6.77;5.37;;;;;;;;;;5043461;28;20177;-56
2022/12/09 05:53:23;;;;;;;7.00;5.47;;;;;;;;;;5040628;28;20774;-56
2022/12/09 05:55:49;;;;;;;6.50;5.73;;;;;;;;;;5040276;28;20170;-56
2022/12/09 05:58:15;;;;;;;7.23;5.63;;;;;;;;;;5043229;28;20206;-55
2022/12/09 06:00:41;;;;;;;7.43;5.47;;;;;;;;;;5041504;28;20636;-57
2022/12/09 06:03:07;;;;;;;8.60;6.23;;;;;;;;;;5050022;28;20234;-56
2022/12/09 06:05:34;;;;;;;8.03;5.87;;;;;;;;;;5047756;28;20644;-56
2022/12/09 06:08:00;;;;;;;7.40;5.43;;;;;;;;;;5045625;28;20221;-57
2022/12/09 06:10:26;;;;;;;7.30;5.53;;;;;;;;;;5043931;28;20677;-57
2022/12/09 06:12:54;;;;;;;7.67;6.17;;;;;;;;;;5038662;28;20269;-55
2022/12/09 06:15:21;;;;;;;8.97;5.47;;;;;;;;;;5042607;28;20188;-56
2022/12/09 06:17:47;;;;;;;7.20;5.80;;;;;;;;;;5038325;28;20288;-57
2022/12/09 06:20:13;;;;;;;7.87;5.57;;;;;;;;;;5034866;28;20182;-57
2022/12/09 06:22:39;;;;;;;9.13;6.10;;;;;;;;;;5025222;28;20632;-57
2022/12/09 06:25:05;;;;;;;8.13;6.03;;;;;;;;;;5045506;28;20178;-57
2022/12/09 06:27:31;;;;;;;6.73;5.23;;;;;;;;;;5026298;28;20295;-56
2022/12/09 06:29:57;;;;;;;7.07;5.47;;;;;;;;;;5043366;28;20486;-56
2022/12/09 06:32:23;;;;;;;7.77;5.23;;;;;;;;;;5051267;28;20677;-56
2022/12/09 06:34:50;;;;;;;8.13;5.80;;;;;;;;;;5058994;28;20241;-56
2022/12/09 06:37:16;;;;;;;8.33;6.43;;;;;;;;;;5047240;28;20184;-58
2022/12/09 06:39:42;;;;;;;7.77;6.33;;;;;;;;;;5051541;28;20177;-56
2022/12/09 06:42:08;;;;;;;8.83;6.10;;;;;;;;;;5057360;28;20192;-57
2022/12/09 06:44:35;;;;;;;8.83;5.70;;;;;;;;;;5029025;28;20626;-57
2022/12/09 06:47:07;;;;;;;7.20;5.63;;;;;;;;;;5051531;28;20691;-56
2022/12/09 06:49:33;;;;;;;7.13;5.63;;;;;;;;;;5046150;28;20458;-57
2022/12/09 06:51:59;;;;;;;8.13;6.50;;;;;;;;;;5040324;28;20173;-57
2022/12/09 06:54:25;;;;;;;9.50;6.13;;;;;;;;;;5050475;28;20181;-56
2022/12/09 06:56:51;;;;;;;6.73;5.87;;;;;;;;;;5029702;28;20763;-56
2022/12/09 06:59:17;;;;;;;6.67;5.93;;;;;;;;;;5039239;28;20181;-56
2022/12/09 07:01:44;;;;;;;7.60;5.90;;;;;;;;;;5035127;28;20677;-57
2022/12/09 07:04:11;;;;;;;6.77;5.50;;;;;;;;;;5033028;28;20202;-58
2022/12/09 07:06:38;;;;;;;7.70;5.73;;;;;;;;;;5031639;28;20184;-55
2022/12/09 07:09:09;;;;;;;5.73;5.00;;;;;;;;;;5029267;28;20208;-56
2022/12/09 07:11:36;;;;;;;6.77;5.33;;;;;;;;;;5014259;28;20232;-56
2022/12/09 07:14:02;;;;;;;6.10;4.83;;;;;;;;;;5036350;28;20721;-57
2022/12/09 07:16:28;;;;;;;8.03;6.40;;;;;;;;;;5047132;28;20224;-56
2022/12/09 07:18:57;;;;;;;8.97;5.60;;;;;;;;;;5047399;28;20734;-56
2022/12/09 07:21:23;;;;;;;7.27;6.07;;;;;;;;;;5046314;28;20227;-57
2022/12/09 07:23:50;;;;;;;6.53;5.00;;;;;;;;;;5047100;28;20635;-55
2022/12/09 07:26:16;;;;;;;6.80;5.10;;;;;;;;;;5040003;28;20181;-56
2022/12/09 07:28:43;;;;;;;9.77;6.00;;;;;;;;;;5046132;28;20663;-55
2022/12/09 07:31:19;;;;;;;8.47;5.77;;;;;;;;;;5047180;28;20204;-56
2022/12/09 07:33:45;;;;;;;7.53;5.83;;;;;;;;;;5047261;28;20569;-56
2022/12/09 07:36:12;;;;;;;6.63;5.43;;;;;;;;;;5047300;28;20166;-57
2022/12/09 07:38:38;;;;;;;6.60;5.20;;;;;;;;;;5029293;28;20200;-55
2022/12/09 07:41:05;;;;;;;9.13;5.87;;;;;;;;;;5047256;28;20169;-56
2022/12/09 07:43:34;;;;;;;6.90;4.97;;;;;;;;;;5044610;28;20526;-56
2022/12/09 07:46:05;;;;;;;6.80;5.50;;;;;;;;;;5048001;28;20260;-56
2022/12/09 07:48:31;;;;;;;7.93;5.50;;;;;;;;;;5047149;28;20584;-58
2022/12/09 07:51:00;;;;;;;9.17;5.73;;;;;;;;;;5046682;28;20943;-56
2022/12/09 07:53:27;;;;;;;7.63;5.57;;;;;;;;;;5047031;28;20305;-62
2022/12/09 07:55:53;;;;;;;8.80;5.57;;;;;;;;;;5010984;28;20696;-57
2022/12/09 07:58:19;;;;;;;6.77;5.47;;;;;;;;;;5023635;28;20748;-56
2022/12/09 08:00:45;;;;;;;7.10;5.37;;;;;;;;;;5045480;28;20200;-56
2022/12/09 08:03:12;;;;;;;8.03;5.13;;;;;;;;;;5046867;28;20157;-57
2022/12/09 08:05:45;;;;;;;8.07;5.50;;;;;;;;;;5046355;28;20157;-56
2022/12/09 08:08:11;;;;;;;6.43;5.53;;;;;;;;;;5046859;28;20703;-56
2022/12/09 08:10:37;;;;;;;7.13;5.20;;;;;;;;;;5042890;28;20188;-56
2022/12/09 08:13:03;;;;;;;6.63;5.27;;;;;;;;;;5044653;28;20177;-56
2022/12/09 08:15:29;;;;;;;9.73;6.07;;;;;;;;;;5027605;28;20216;-57
2022/12/09 08:17:56;;;;;;;7.60;6.10;;;;;;;;;;5025663;28;20181;-56
2022/12/09 08:20:22;;;;;;;7.47;5.57;;;;;;;;;;5016898;28;20252;-58
2022/12/09 08:22:48;;;;;;;7.67;5.83;;;;;;;;;;5046575;28;20249;-56
2022/12/09 08:25:14;;;;;;;9.33;5.97;;;;;;;;;;5046506;28;20189;-55
2022/12/09 08:27:40;;;;;;;9.43;5.70;;;;;;;;;;5027607;28;20196;-55
2022/12/09 08:30:06;;;;;;;6.63;5.70;;;;;;;;;;5046463;28;20290;-56
2022/12/09 08:32:32;;;;;;;7.67;5.97;;;;;;;;;;5045094;28;20184;-58
2022/12/09 08:34:58;;;;;;;8.37;5.70;;;;;;;;;;5039980;28;20186;-57
2022/12/09 08:37:25;;;;;;;7.37;5.77;;;;;;;;;;5021895;28;20173;-57
2022/12/09 08:39:51;;;;;;;6.27;5.60;;;;;;;;;;5046438;28;20170;-56
2022/12/09 08:42:17;;;;;;;10.47;5.80;;;;;;;;;;5045603;28;20551;-55
2022/12/09 08:44:43;;;;;;;8.70;6.60;;;;;;;;;;5045922;28;20532;-57
2022/12/09 08:47:09;;;;;;;9.23;5.80;;;;;;;;;;5027209;28;20283;-57
2022/12/09 08:49:35;;;;;;;7.47;6.30;;;;;;;;;;5028975;28;20285;-56
2022/12/09 08:52:01;;;;;;;7.23;5.53;;;;;;;;;;5044714;28;20625;-57
2022/12/09 08:54:28;;;;;;;8.43;6.60;;;;;;;;;;5045446;28;20187;-56
2022/12/09 08:56:54;;;;;;;8.63;5.57;;;;;;;;;;5045419;28;20908;-55
2022/12/09 08:59:21;;;;;;;8.17;6.30;;;;;;;;;;5034476;28;20178;-58
2022/12/09 09:01:47;;;;;;;8.90;5.83;;;;;;;;;;5025421;28;20165;-57
2022/12/09 09:04:15;;;;;;;10.40;5.70;;;;;;;;;;5036595;28;20682;-57
2022/12/09 09:06:42;;;;;;;7.50;5.60;;;;;;;;;;5035702;28;20279;-57
2022/12/09 09:09:09;;;;;;;7.57;6.27;;;;;;;;;;5054614;28;20205;-56
2022/12/09 09:11:35;;;;;;;8.27;6.30;;;;;;;;;;5040152;28;20544;-56
2022/12/09 09:14:02;;;;;;;15.33;9.07;;;;;;;;;;5065566;28;20168;-62
2022/12/09 09:16:28;;;;;;;10.10;7.53;;;;;;;;;;5055169;28;20157;-58
2022/12/09 09:18:55;;;;;;;12.23;8.63;;;;;;;;;;5044053;28;20182;-56
2022/12/09 09:21:22;;;;;;;9.93;7.50;;;;;;;;;;5041612;28;20509;-57
2022/12/09 09:23:48;;;;;;;11.87;8.07;;;;;;;;;;5027331;28;20189;-58
2022/12/09 09:26:22;;;;;;;11.40;7.27;;;;;;;;;;5047706;28;20679;-59
2022/12/09 09:28:48;;;;;;;13.13;8.37;;;;;;;;;;5041118;28;20702;-57
2022/12/09 09:31:19;;;;;;;10.73;7.97;;;;;;;;;;5050207;28;20189;-57
2022/12/09 09:33:45;;;;;;;11.50;7.73;;;;;;;;;;5027314;28;20666;-60
2022/12/09 09:36:19;;;;;;;10.27;7.93;;;;;;;;;;5043815;28;20256;-59
2022/12/09 09:38:45;;;;;;;12.93;7.47;;;;;;;;;;5046479;28;20735;-58
2022/12/09 09:41:18;;;;;;;11.07;7.67;;;;;;;;;;5049612;28;20186;-59
2022/12/09 09:43:44;;;;;;;10.60;8.20;;;;;;;;;;5031060;28;20189;-58
2022/12/09 09:46:15;;;;;;;14.30;7.40;;;;;;;;;;5036064;28;20248;-59
2022/12/09 09:48:41;;;;;;;9.80;6.43;;;;;;;;;;5025431;28;20192;-57
2022/12/09 09:51:14;;;;;;;11.60;8.40;;;;;;;;;;5011633;28;20186;-58
2022/12/09 09:53:41;;;;;;;9.40;7.53;;;;;;;;;;5016323;28;20248;-60
2022/12/09 09:56:26;;;;;;;8.90;7.20;;;;;;;;;;5019844;28;20655;-60
2022/12/09 09:59:01;;;;;;;9.53;7.17;;;;;;;;;;5016505;28;20186;-60
2022/12/09 10:01:30;;;;;;;9.27;7.70;;;;;;;;;;5016304;28;20178;-58
2022/12/09 10:03:56;;;;;;;9.63;7.33;;;;;;;;;;5017271;28;20630;-58
2022/12/09 10:06:32;;;;;;;7.20;6.03;;;;;;;;;;5027853;28;20190;-60
2022/12/09 10:09:18;;;;;;;10.17;7.33;;;;;;;;;;5028987;28;20627;-59
2022/12/09 10:11:44;;;;;;;16.70;7.33;;;;;;;;;;5008501;28;21000;-59
2022/12/09 10:14:15;;;;;;;9.97;7.07;;;;;;;;;;5021979;28;20279;-58
2022/12/09 10:16:42;;;;;;;10.27;7.87;;;;;;;;;;5016303;28;20179;-60
2022/12/09 10:19:17;;;;;;;12.00;6.87;;;;;;;;;;5023299;28;20184;-58
2022/12/09 10:21:45;;;;;;;10.00;7.40;;;;;;;;;;5028697;28;20187;-60
2022/12/09 10:24:15;;;;;;;8.80;7.40;;;;;;;;;;5032267;28;20628;-59
2022/12/09 10:26:41;;;;;;;10.67;7.37;;;;;;;;;;5006961;28;20182;-57
2022/12/09 10:29:16;;;;;;;8.50;6.90;;;;;;;;;;5028145;28;20225;-58
2022/12/09 10:31:42;;;;;;;10.13;7.33;;;;;;;;;;5021550;28;20202;-60
2022/12/09 10:34:10;;;;;;;12.30;7.43;;;;;;;;;;5016474;28;20533;-58
2022/12/09 10:36:37;;;;;;;7.93;6.63;;;;;;;;;;5018961;28;20751;-58
2022/12/09 10:39:04;;;;;;;10.20;7.33;;;;;;;;;;5028445;28;20240;-59
2022/12/09 10:44:25;;;;;;;9.57;6.97;;;;;;;;;;5027942;28;20285;-59
2022/12/09 10:46:58;;;;;;;8.17;6.60;;;;;;;;;;5029412;28;20733;-58
2022/12/09 10:49:24;;;;;;;9.33;6.97;;;;;;;;;;5034259;28;20602;-58
2022/12/09 10:51:51;;;;;;;9.00;7.33;;;;;;;;;;5034831;28;20228;-59
2022/12/09 10:54:17;;;;;;;8.90;7.23;;;;;;;;;;5043509;28;20165;-58
2022/12/09 10:57:02;;;;;;;11.43;7.70;;;;;;;;;;5047815;28;20237;-60
2022/12/09 10:59:29;;;;;;;8.60;6.77;;;;;;;;;;5035088;28;20450;-59
2022/12/09 11:02:00;;;;;;;9.27;7.27;;;;;;;;;;5027723;28;20593;-58
2022/12/09 11:04:27;;;;;;;11.00;7.83;;;;;;;;;;5038028;28;20632;-58
2022/12/09 11:06:58;;;;;;;9.07;7.30;;;;;;;;;;5038128;28;20211;-58
2022/12/09 11:09:26;;;;;;;8.00;6.47;;;;;;;;;;5046621;28;20543;-59
2022/12/09 11:11:53;;;;;;;10.00;6.73;;;;;;;;;;5047305;28;20231;-58
2022/12/09 11:14:23;;;;;;;12.80;7.10;;;;;;;;;;5039638;28;20249;-57
2022/12/09 11:16:59;;;;;;;9.67;6.43;;;;;;;;;;5041632;28;20642;-58
2022/12/09 11:19:29;;;;;;;8.50;6.50;;;;;;;;;;5047499;28;20219;-59
2022/12/09 11:22:12;;;;;;;9.60;6.40;;;;;;;;;;5054011;28;20192;-58
2022/12/09 11:24:39;;;;;;;8.97;6.30;;;;;;;;;;5045414;28;20520;-58
2022/12/09 11:27:17;;;;;;;9.50;6.67;;;;;;;;;;5042877;28;20190;-59
2022/12/09 11:29:43;;;;;;;8.57;6.33;;;;;;;;;;5039463;28;20250;-60
2022/12/09 11:32:13;;;;;;;8.73;7.23;;;;;;;;;;5047060;28;20532;-55
2022/12/09 11:34:45;;;;;;;11.77;7.23;;;;;;;;;;5032074;28;20211;-57
2022/12/09 11:37:11;;;;;;;7.00;6.27;;;;;;;;;;5035574;28;20536;-57
2022/12/09 11:39:38;;;;;;;9.13;6.47;;;;;;;;;;5022023;28;20186;-67
2022/12/09 11:42:29;;;;;;;8.40;6.30;;;;;;;;;;5040116;28;20192;-60
2022/12/09 11:44:57;;;;;;;8.80;6.40;;;;;;;;;;5025138;28;20686;-57
2022/12/09 11:47:30;;;;;;;8.90;6.80;;;;;;;;;;5015692;28;20234;-58
2022/12/09 11:50:15;;;;;;;9.03;5.83;;;;;;;;;;5043822;28;20208;-58
2022/12/09 11:52:41;;;;;;;9.27;6.47;;;;;;;;;;5025282;28;20188;-58
2022/12/09 11:55:12;;;;;;;7.13;5.87;;;;;;;;;;5044886;28;20173;-58
2022/12/09 11:57:51;;;;;;;8.90;6.13;;;;;;;;;;5018544;28;20677;-59
2022/12/09 12:00:23;;;;;;;9.33;7.37;;;;;;;;;;5035547;28;20200;-58
2022/12/09 12:02:55;;;;;;;7.77;5.83;;;;;;;;;;5016433;28;20732;-58
2022/12/09 12:05:26;;;;;;;10.17;6.00;;;;;;;;;;5027726;28;20361;-58
2022/12/09 12:08:05;;;;;;;10.03;6.57;;;;;;;;;;5007970;28;20190;-58
2022/12/09 12:10:35;;;;;;;7.27;5.27;;;;;;;;;;5006836;28;20171;-61
2022/12/09 12:13:13;;;;;;;7.27;5.17;;;;;;;;;;5015126;28;20193;-59
2022/12/09 12:15:58;;;;;;;8.80;5.80;;;;;;;;;;5021311;28;20189;-58
2022/12/09 12:18:26;;;;;;;8.40;6.00;;;;;;;;;;5012261;28;20185;-59
2022/12/09 12:21:11;;;;;;;8.47;6.23;;;;;;;;;;5006623;28;20159;-59
2022/12/09 12:23:45;;;;;;;7.13;5.43;;;;;;;;;;5006646;28;20580;-59
2022/12/09 12:26:23;;;;;;;7.07;5.37;;;;;;;;;;5018663;28;20192;-58
2022/12/09 12:28:55;;;;;;;7.63;5.67;;;;;;;;;;5020595;28;20467;-59
2022/12/09 12:31:46;;;;;;;7.00;5.60;;;;;;;;;;4999872;28;20680;-59
2022/12/09 12:34:18;;;;;;;8.43;6.23;;;;;;;;;;5020151;28;20182;-58
2022/12/09 12:36:48;;;;;;;9.53;5.90;;;;;;;;;;5030604;28;20616;-57
2022/12/09 12:39:17;;;;;;;7.30;5.93;;;;;;;;;;5022598;28;20575;-59
2022/12/09 12:42:02;;;;;;;8.07;5.43;;;;;;;;;;5023541;28;20187;-58
2022/12/09 12:47:36;;;;;;;7.40;5.83;;;;;;;;;;5028836;28;20223;-58
2022/12/09 12:50:19;;;;;;;7.63;5.93;;;;;;;;;;5043198;28;20211;-60
2022/12/09 12:52:45;;;;;;;6.50;5.67;;;;;;;;;;5032184;28;20192;-59
2022/12/09 12:55:16;;;;;;;9.37;6.13;;;;;;;;;;5029819;28;20182;-58
2022/12/09 12:57:50;;;;;;;7.60;6.30;;;;;;;;;;5021087;28;20691;-57
2022/12/09 13:00:21;;;;;;;9.57;6.50;;;;;;;;;;5032700;28;20188;-59
2022/12/09 13:02:56;;;;;;;7.10;5.50;;;;;;;;;;5040906;28;20989;-57
2022/12/09 13:05:24;;;;;;;8.77;5.83;;;;;;;;;;5037924;28;20192;-57
2022/12/09 13:07:53;;;;;;;13.80;5.00;;;;;;;;;;5027378;28;20242;-58
2022/12/09 13:10:28;;;;;;;8.70;6.27;;;;;;;;;;5036432;28;20185;-59
2022/12/09 13:12:57;;;;;;;8.10;5.87;;;;;;;;;;5037121;28;20445;-59
2022/12/09 13:15:35;;;;;;;7.87;5.53;;;;;;;;;;5038066;28;20177;-58
2022/12/09 13:18:11;;;;;;;9.43;6.80;;;;;;;;;;5019277;28;20181;-58
2022/12/09 13:20:37;;;;;;;7.90;5.27;;;;;;;;;;5038801;28;20192;-58
2022/12/09 13:23:11;;;;;;;7.67;5.13;;;;;;;;;;5034398;28;20181;-60
2022/12/09 13:25:45;;;;;;;7.10;4.73;;;;;;;;;;5036314;28;20815;-59
2022/12/09 13:28:29;;;;;;;6.93;5.00;;;;;;;;;;5044582;28;20242;-59
2022/12/09 13:30:57;;;;;;;5.93;4.57;;;;;;;;;;5035771;28;20234;-57
2022/12/09 13:33:29;;;;;;;7.43;5.37;;;;;;;;;;5040696;28;20571;-60
2022/12/09 13:36:00;;;;;;;8.30;6.20;;;;;;;;;;5040549;28;20173;-58
2022/12/09 13:38:26;;;;;;;5.93;5.10;;;;;;;;;;5037559;28;20268;-58
2022/12/09 13:40:52;;;;;;;5.77;4.93;;;;;;;;;;5038634;28;20605;-59
2022/12/09 13:43:29;;;;;;;10.20;5.70;;;;;;;;;;5036477;28;20192;-59
2022/12/09 13:45:59;;;;;;;8.40;5.93;;;;;;;;;;5038227;28;20195;-58
2022/12/09 13:48:28;;;;;;;6.83;5.23;;;;;;;;;;5026631;28;20233;-58
2022/12/09 13:50:58;;;;;;;7.47;5.93;;;;;;;;;;5035661;28;20185;-60
2022/12/09 13:53:32;;;;;;;8.63;5.70;;;;;;;;;;5034700;28;20181;-58
2022/12/09 13:56:04;;;;;;;6.93;5.67;;;;;;;;;;5021647;28;20694;-58
2022/12/09 13:58:43;;;;;;;10.47;5.33;;;;;;;;;;5035074;28;20658;-58
2022/12/09 14:01:12;;;;;;;7.00;5.50;;;;;;;;;;5038306;28;20200;-57
2022/12/09 14:03:57;;;;;;;5.77;5.17;;;;;;;;;;5018715;28;20283;-58
2022/12/09 14:06:25;;;;;;;6.40;5.80;;;;;;;;;;5032005;28;20248;-58
2022/12/09 14:08:53;;;;;;;9.60;6.03;;;;;;;;;;5034170;28;20215;-58
2022/12/09 14:11:46;;;;;;;5.97;5.23;;;;;;;;;;5039864;28;20196;-58
2022/12/09 14:14:24;;;;;;;7.17;5.50;;;;;;;;;;5033044;28;20689;-58
2022/12/09 14:16:50;;;;;;;8.23;5.23;;;;;;;;;;5039285;28;20716;-58
2022/12/09 14:19:30;;;;;;;7.63;5.37;;;;;;;;;;5039360;28;20181;-58
2022/12/09 14:22:16;;;;;;;8.17;5.77;;;;;;;;;;5024825;28;20586;-58
2022/12/09 14:24:50;;;;;;;7.10;5.27;;;;;;;;;;4998377;28;20692;-58
2022/12/09 14:27:16;;;;;;;7.97;5.47;;;;;;;;;;5029768;28;20667;-58
2022/12/09 14:29:42;;;;;;;7.57;5.40;;;;;;;;;;5033596;28;20229;-58
2022/12/09 14:32:20;;;;;;;8.00;5.60;;;;;;;;;;5019914;28;20303;-59
2022/12/09 14:35:05;;;;;;;7.03;5.50;;;;;;;;;;5022184;28;20177;-60
2022/12/09 14:37:42;;;;;;;7.10;5.63;;;;;;;;;;5034479;28;20184;-59
2022/12/09 14:40:15;;;;;;;6.80;5.50;;;;;;;;;;5041639;28;20551;-58
2022/12/09 14:42:47;;;;;;;7.07;5.93;;;;;;;;;;5030358;28;20201;-58
2022/12/09 14:45:13;;;;;;;7.30;5.53;;;;;;;;;;5038425;28;20702;-58
2022/12/09 14:47:41;;;;;;;7.67;5.70;;;;;;;;;;5039524;28;20253;-58
2022/12/09 14:50:37;;;;;;;8.73;5.30;;;;;;;;;;5037549;28;20201;-58
2022/12/09 14:53:04;;;;;;;7.17;5.47;;;;;;;;;;5014072;28;20192;-59
2022/12/09 14:55:32;;;;;;;5.97;4.87;;;;;;;;;;5027181;28;20644;-59
2022/12/09 14:58:00;;;;;;;7.53;5.13;;;;;;;;;;5038497;28;20834;-60